Time;durP1;ratioP1;P1;durP2;ratioP2;P2;SDS_P1;SDS_P2;PMS_P1;PMS_P2;Temp;Humidity;BMP_temperature;BMP_pressure;BME280_temperature;BME280_humidity;BME280_pressure;Samples;Min_cycle;Max_cycle;Signal;HPM_P1;HPM_P2
2023/12/04 00:00:27;;;;;;;85.60;39.20;;;;;;;-7.10;82.84;101011.11;129597;1261;115515;-59
2023/12/04 00:03:49;;;;;;;84.40;36.90;;;;;;;-7.17;83.16;101014.70;129303;1273;129862;-59
2023/12/04 00:06:51;;;;;;;82.80;38.50;;;;;;;-7.22;83.02;101018.20;129337;1263;114719;-59
2023/12/04 00:09:53;;;;;;;79.40;37.00;;;;;;;-7.27;82.72;101015.06;129168;1283;114856;-59
2023/12/04 00:12:55;;;;;;;78.00;37.80;;;;;;;-7.32;82.72;101018.90;129055;1276;115375;-60
2023/12/04 00:15:57;;;;;;;81.10;37.30;;;;;;;-7.38;82.59;101024.77;129508;1283;114854;-60
2023/12/04 00:18:59;;;;;;;91.70;40.20;;;;;;;-7.43;82.48;101020.05;129259;1265;115268;-60
2023/12/04 00:22:01;;;;;;;81.60;38.00;;;;;;;-7.49;82.55;101018.11;129173;1267;114889;-60
2023/12/04 00:25:05;;;;;;;81.60;37.80;;;;;;;-7.54;82.79;101012.75;129329;1277;114916;-59
2023/12/04 00:28:07;;;;;;;84.70;39.40;;;;;;;-7.59;82.95;101011.52;129369;1284;114873;-62
2023/12/04 00:31:10;;;;;;;83.10;38.20;;;;;;;-7.64;82.86;101011.52;129287;1266;114719;-60
2023/12/04 00:34:12;;;;;;;86.80;38.90;;;;;;;-7.69;82.92;101016.02;129287;1276;114734;-60
2023/12/04 00:37:15;;;;;;;81.80;37.10;;;;;;;-7.74;82.74;101019.33;129359;1284;115575;-60
2023/12/04 00:40:17;;;;;;;81.00;36.80;;;;;;;-7.79;82.63;101023.31;129173;1265;115799;-60
2023/12/04 00:43:19;;;;;;;79.40;34.30;;;;;;;-7.83;82.66;101026.06;129225;1276;115508;-60
2023/12/04 00:46:21;;;;;;;75.60;33.60;;;;;;;-7.89;82.03;101032.63;129419;1266;114849;-61
2023/12/04 00:49:24;;;;;;;82.80;35.10;;;;;;;-7.95;82.60;101030.88;129243;1264;114740;-60
2023/12/04 00:52:26;;;;;;;71.80;33.90;;;;;;;-8.00;82.33;101030.50;129481;1264;115281;-61
2023/12/04 00:55:27;;;;;;;71.60;32.40;;;;;;;-8.05;82.48;101033.95;129177;1280;114733;-60
2023/12/04 00:58:29;;;;;;;73.70;32.80;;;;;;;-8.09;82.39;101032.94;129307;1263;115271;-60
2023/12/04 01:01:31;;;;;;;74.20;32.40;;;;;;;-8.13;82.21;101032.61;129378;1275;114792;-60
2023/12/04 01:04:33;;;;;;;73.40;32.90;;;;;;;-8.16;82.27;101035.06;129465;1277;114825;-60
2023/12/04 01:07:35;;;;;;;81.20;33.60;;;;;;;-8.19;82.12;101035.83;129357;1272;128352;-61
2023/12/04 01:10:39;;;;;;;76.00;33.70;;;;;;;-8.23;82.38;101036.21;129304;1260;114731;-60
2023/12/04 01:13:41;;;;;;;71.80;33.70;;;;;;;-8.28;82.45;101037.07;129367;1275;115143;-60
2023/12/04 01:16:43;;;;;;;79.30;34.90;;;;;;;-8.31;82.46;101033.98;126781;1283;3554937;-60
2023/12/04 01:19:45;;;;;;;75.80;33.40;;;;;;;-8.35;82.32;101036.60;129420;1261;114732;-60
2023/12/04 01:22:47;;;;;;;71.00;34.50;;;;;;;-8.41;82.33;101034.83;129281;1272;114700;-60
2023/12/04 01:25:49;;;;;;;76.10;34.50;;;;;;;-8.45;82.23;101034.33;129352;1260;115511;-60
2023/12/04 01:28:51;;;;;;;78.90;36.30;;;;;;;-8.50;82.10;101036.23;128996;1271;128520;-60
2023/12/04 01:31:53;;;;;;;78.80;36.40;;;;;;;-8.53;82.18;101039.58;129248;1284;114832;-60
2023/12/04 01:34:55;;;;;;;77.60;36.10;;;;;;;-8.56;82.12;101054.19;129476;1264;114752;-61
2023/12/04 01:37:57;;;;;;;81.90;35.20;;;;;;;-8.60;82.01;101050.58;129389;1264;115273;-61
2023/12/04 01:40:59;;;;;;;75.10;35.30;;;;;;;-8.62;82.06;101053.77;129375;1267;115071;-60
2023/12/04 01:44:01;;;;;;;75.10;34.00;;;;;;;-8.64;81.81;101060.07;129323;1262;114882;-60
2023/12/04 01:47:04;;;;;;;79.00;32.00;;;;;;;-8.68;81.73;101055.23;129355;1267;115167;-60
2023/12/04 01:50:07;;;;;;;75.70;32.40;;;;;;;-8.73;81.58;101053.14;129368;1267;114781;-60
2023/12/04 01:53:09;;;;;;;74.60;32.90;;;;;;;-8.78;81.87;101049.85;129299;1274;114926;-60
2023/12/04 01:56:12;;;;;;;80.20;34.40;;;;;;;-8.81;81.84;101051.09;129132;1267;114776;-60
2023/12/04 01:59:15;;;;;;;82.20;35.20;;;;;;;-8.85;81.62;101045.72;129256;1267;114854;-60
2023/12/04 02:02:17;;;;;;;86.30;36.90;;;;;;;-8.88;82.05;101044.91;129101;1269;115412;-60
2023/12/04 02:05:20;;;;;;;121.60;46.90;;;;;;;-8.91;81.98;101045.51;129302;1265;114733;-60
2023/12/04 02:08:22;;;;;;;189.40;66.00;;;;;;;-8.93;81.84;101037.27;129201;1279;114875;-60
2023/12/04 02:11:25;;;;;;;147.60;54.00;;;;;;;-8.96;82.35;101036.82;129353;1260;114737;-60
2023/12/04 02:14:27;;;;;;;143.10;53.40;;;;;;;-8.98;82.26;101035.69;129318;1274;114754;-61
2023/12/04 02:17:29;;;;;;;110.50;43.50;;;;;;;-8.99;82.33;101030.96;129293;1267;114707;-60
2023/12/04 02:20:33;;;;;;;94.70;40.60;;;;;;;-9.02;82.00;101033.45;129326;1263;115926;-60
2023/12/04 02:23:35;;;;;;;88.80;36.50;;;;;;;-9.06;82.04;101034.33;129462;1265;114757;-60
2023/12/04 02:26:45;;;;;;;97.10;38.80;;;;;;;-9.09;81.74;101031.09;129390;1265;114783;-60
2023/12/04 02:29:52;;;;;;;96.10;38.40;;;;;;;-9.14;81.61;101027.25;129239;1284;128646;-60
2023/12/04 02:32:54;;;;;;;85.80;36.80;;;;;;;-9.18;81.84;101029.83;129226;1284;115145;-60
2023/12/04 02:35:57;;;;;;;96.60;40.80;;;;;;;-9.23;81.43;101029.63;129235;1265;114781;-60
2023/12/04 02:38:59;;;;;;;95.10;41.50;;;;;;;-9.28;81.43;101030.80;129194;1267;114789;-60
2023/12/04 02:42:01;;;;;;;106.30;46.70;;;;;;;-9.34;81.54;101027.11;129188;1281;115051;-60
2023/12/04 02:45:04;;;;;;;165.20;63.60;;;;;;;-9.37;81.80;101024.56;129305;1267;114830;-60
2023/12/04 02:48:07;;;;;;;122.80;46.70;;;;;;;-9.39;81.88;101019.44;129317;1265;114761;-60
2023/12/04 02:51:10;;;;;;;123.00;48.90;;;;;;;-9.46;81.86;101022.41;129347;1268;114766;-60
2023/12/04 02:54:12;;;;;;;119.70;49.00;;;;;;;-9.50;81.94;101026.05;129443;1261;114849;-60
2023/12/04 02:57:14;;;;;;;132.60;54.00;;;;;;;-9.55;81.88;101021.52;129373;1262;114785;-60
2023/12/04 03:00:17;;;;;;;135.70;52.80;;;;;;;-9.60;81.96;101025.10;129160;1271;114820;-60
2023/12/04 03:03:18;;;;;;;134.20;52.70;;;;;;;-9.64;82.10;101029.08;129386;1280;114769;-61
2023/12/04 03:06:21;;;;;;;113.60;48.10;;;;;;;-9.68;82.26;101034.61;129360;1261;114775;-59
2023/12/04 03:09:23;;;;;;;120.60;47.80;;;;;;;-9.72;82.16;101031.84;129348;1264;114849;-60
2023/12/04 03:12:25;;;;;;;118.20;48.70;;;;;;;-9.76;81.96;101030.63;129173;1270;115241;-60
2023/12/04 03:15:28;;;;;;;117.40;47.90;;;;;;;-9.78;82.04;101029.52;129422;1263;114802;-60
2023/12/04 03:18:30;;;;;;;134.50;51.20;;;;;;;-9.78;82.13;101031.23;129348;1264;115276;-60
2023/12/04 03:21:32;;;;;;;124.70;51.50;;;;;;;-9.79;82.09;101034.29;129205;1283;114812;-60
2023/12/04 03:24:34;;;;;;;126.50;52.20;;;;;;;-9.81;81.68;101038.54;129060;1266;114860;-60
2023/12/04 03:27:36;;;;;;;132.30;55.00;;;;;;;-9.84;81.80;101036.85;129261;1277;114740;-60
2023/12/04 03:30:38;;;;;;;164.10;60.10;;;;;;;-9.84;81.97;101041.33;129361;1264;114795;-61
2023/12/04 03:33:41;;;;;;;157.00;62.40;;;;;;;-9.86;81.98;101047.47;129068;1267;115168;-60
2023/12/04 03:36:42;;;;;;;172.50;65.00;;;;;;;-9.88;81.96;101049.42;129426;1263;115388;-60
2023/12/04 03:39:44;;;;;;;162.80;63.00;;;;;;;-9.90;82.13;101049.00;129567;1263;114709;-60
2023/12/04 03:42:46;;;;;;;150.60;59.10;;;;;;;-9.92;82.01;101053.59;129483;1260;114706;-60
2023/12/04 03:45:48;;;;;;;167.90;61.90;;;;;;;-9.94;81.95;101057.69;129285;1263;115388;-61
2023/12/04 03:48:50;;;;;;;159.90;63.60;;;;;;;-9.96;81.83;101058.77;129358;1283;114773;-60
2023/12/04 03:51:52;;;;;;;163.30;60.60;;;;;;;-9.98;81.84;101054.34;129035;1270;128403;-60
2023/12/04 03:54:54;;;;;;;172.40;63.30;;;;;;;-10.00;81.91;101044.59;129285;1283;114733;-60
2023/12/04 03:57:56;;;;;;;158.50;59.50;;;;;;;-10.02;81.62;101046.59;129323;1264;114752;-60
2023/12/04 04:00:58;;;;;;;157.70;60.60;;;;;;;-10.05;81.54;101050.74;129068;1261;115154;-59
2023/12/04 04:04:01;;;;;;;141.70;54.50;;;;;;;-10.09;81.21;101046.07;129327;1278;114862;-59
2023/12/04 04:07:03;;;;;;;127.80;52.10;;;;;;;-10.12;81.21;101047.65;129398;1283;114685;-59
2023/12/04 04:10:06;;;;;;;135.50;55.00;;;;;;;-10.15;81.14;101048.03;129147;1264;114905;-59
2023/12/04 04:13:08;;;;;;;132.20;53.60;;;;;;;-10.18;81.03;101049.64;129347;1264;116440;-60
2023/12/04 04:16:16;;;;;;;121.40;48.40;;;;;;;-10.22;80.91;101043.07;129282;1264;114845;-60
2023/12/04 04:19:18;;;;;;;123.30;48.40;;;;;;;-10.25;80.84;101039.31;129106;1264;115199;-59
2023/12/04 04:22:21;;;;;;;124.40;47.40;;;;;;;-10.27;81.01;101036.47;129263;1275;115261;-60
2023/12/04 04:25:23;;;;;;;130.00;52.00;;;;;;;-10.29;80.90;101024.98;129288;1265;114825;-60
2023/12/04 04:28:26;;;;;;;126.90;51.60;;;;;;;-10.30;80.98;101022.99;129365;1268;114894;-60
2023/12/04 04:31:27;;;;;;;132.20;49.10;;;;;;;-10.31;81.01;101018.64;129197;1284;128402;-60
2023/12/04 04:34:30;;;;;;;123.80;48.50;;;;;;;-10.32;81.15;101015.81;129227;1265;114738;-60
2023/12/04 04:37:33;;;;;;;109.50;43.80;;;;;;;-10.34;81.04;101012.96;129275;1264;114844;-60
2023/12/04 04:40:35;;;;;;;111.90;45.80;;;;;;;-10.36;81.02;101011.34;129381;1262;114897;-60
2023/12/04 04:43:37;;;;;;;110.10;44.30;;;;;;;-10.38;81.08;101009.89;129218;1264;114848;-60
2023/12/04 04:46:39;;;;;;;103.90;41.60;;;;;;;-10.40;80.91;101008.79;129327;1264;114652;-60
2023/12/04 04:49:42;;;;;;;113.80;43.60;;;;;;;-10.41;80.92;101013.05;129298;1284;115217;-60
2023/12/04 04:52:44;;;;;;;124.80;47.10;;;;;;;-10.42;80.72;101017.47;129320;1264;128860;-60
2023/12/04 04:55:45;;;;;;;116.80;44.20;;;;;;;-10.45;80.63;101019.60;129207;1269;114856;-60
2023/12/04 04:58:53;;;;;;;0.30;0.30;;;;;;;-10.46;81.01;101019.17;129318;1262;114769;-60
2023/12/04 05:01:56;;;;;;;0.20;0.20;;;;;;;-10.49;80.64;101011.44;129188;1263;114976;-60
2023/12/04 05:05:02;;;;;;;0.20;0.20;;;;;;;-10.51;80.85;101014.98;129321;1265;116355;-60
2023/12/04 05:08:04;;;;;;;0.20;0.20;;;;;;;-10.53;80.77;101013.15;129274;1268;127587;-61
2023/12/04 05:11:06;;;;;;;0.20;0.20;;;;;;;-10.55;80.93;101010.13;129276;1284;114685;-60
2023/12/04 05:14:09;;;;;;;0.30;0.30;;;;;;;-10.54;81.40;101005.67;129327;1264;114866;-60
2023/12/04 05:17:11;;;;;;;0.30;0.30;;;;;;;-10.55;81.45;101011.55;129361;1261;114773;-60
2023/12/04 05:20:13;;;;;;;0.20;0.20;;;;;;;-10.54;81.48;101014.84;129087;1268;114736;-60
2023/12/04 05:23:15;;;;;;;0.20;0.20;;;;;;;-10.55;81.39;101010.68;129144;1280;115286;-61
2023/12/04 05:26:17;;;;;;;0.20;0.20;;;;;;;-10.56;81.29;101004.94;129479;1283;114831;-60
2023/12/04 05:29:19;;;;;;;0.20;0.20;;;;;;;-10.58;81.57;100998.27;129004;1277;128742;-61
2023/12/04 05:32:21;;;;;;;0.20;0.20;;;;;;;-10.58;81.35;100992.03;129521;1260;114718;-62
2023/12/04 05:35:23;;;;;;;0.20;0.20;;;;;;;-10.58;81.26;101002.91;129218;1268;114815;-61
2023/12/04 05:38:25;;;;;;;0.20;0.20;;;;;;;-10.60;81.34;101001.48;129387;1265;115096;-60
2023/12/04 05:41:27;;;;;;;0.20;0.20;;;;;;;-10.61;81.41;100998.46;129314;1277;114699;-61
2023/12/04 05:44:31;;;;;;;0.10;0.10;;;;;;;-10.63;81.81;100996.13;129248;1280;114745;-61
2023/12/04 05:47:34;;;;;;;0.20;0.20;;;;;;;-10.65;81.46;100993.45;129273;1261;115423;-62
2023/12/04 05:50:36;;;;;;;0.20;0.20;;;;;;;-10.65;81.72;100993.08;129313;1275;127401;-61
2023/12/04 05:53:39;;;;;;;0.20;0.20;;;;;;;-10.66;81.53;100992.17;129345;1264;114757;-61
2023/12/04 05:56:42;;;;;;;0.10;0.10;;;;;;;-10.65;81.68;100992.58;129386;1261;114792;-61
2023/12/04 05:59:44;;;;;;;0.10;0.10;;;;;;;-10.63;81.57;100991.11;129333;1264;114723;-62
2023/12/04 06:02:46;;;;;;;0.20;0.20;;;;;;;-10.65;81.38;100987.58;129470;1283;114848;-59
2023/12/04 06:05:48;;;;;;;0.10;0.10;;;;;;;-10.66;81.32;100989.07;129424;1262;114716;-60
2023/12/04 06:08:51;;;;;;;0.10;0.10;;;;;;;-10.67;82.10;100983.67;129484;1263;114745;-61
2023/12/04 06:11:52;;;;;;;0.20;0.20;;;;;;;-10.69;82.13;100985.84;129452;1260;114703;-60
2023/12/04 06:14:55;;;;;;;0.20;0.20;;;;;;;-10.67;82.16;100983.69;129033;1262;114909;-60
2023/12/04 06:17:57;;;;;;;0.20;0.20;;;;;;;-10.67;82.05;100978.68;129271;1264;115408;-60
2023/12/04 06:21:00;;;;;;;0.10;0.10;;;;;;;-10.66;81.95;100983.52;129380;1265;114754;-60
2023/12/04 06:24:02;;;;;;;0.20;0.20;;;;;;;-10.65;82.32;100986.02;129367;1284;114722;-61
2023/12/04 06:27:06;;;;;;;0.20;0.20;;;;;;;-10.63;82.40;100986.81;129358;1277;114662;-60
2023/12/04 06:30:08;;;;;;;0.10;0.10;;;;;;;-10.58;82.84;100987.54;129080;1284;126600;-60
2023/12/04 06:33:12;;;;;;;0.20;0.20;;;;;;;-10.56;82.74;100989.92;129363;1264;114740;-59
2023/12/04 06:36:15;;;;;;;0.10;0.10;;;;;;;-10.54;82.41;100992.08;129019;1269;114834;-59
2023/12/04 06:39:17;;;;;;;0.10;0.10;;;;;;;-10.52;82.46;100987.51;129313;1262;114815;-60
2023/12/04 06:42:20;;;;;;;0.20;0.20;;;;;;;-10.50;82.17;100986.52;129222;1265;114791;-59
2023/12/04 06:45:22;;;;;;;0.10;0.10;;;;;;;-10.50;81.91;100984.45;129392;1264;115655;-63
2023/12/04 06:48:25;;;;;;;0.20;0.20;;;;;;;-10.49;82.03;100982.11;129230;1280;129022;-59
2023/12/04 06:51:27;;;;;;;0.20;0.20;;;;;;;-10.47;81.98;100977.88;129278;1265;114797;-62
2023/12/04 06:54:29;;;;;;;0.20;0.20;;;;;;;-10.45;82.21;100972.62;129208;1267;114810;-60
2023/12/04 06:57:32;;;;;;;0.10;0.10;;;;;;;-10.39;82.50;100971.48;129261;1277;115352;-60
2023/12/04 07:00:35;;;;;;;0.10;0.10;;;;;;;-10.33;82.77;100967.09;129136;1268;114779;-61
2023/12/04 07:03:38;;;;;;;0.10;0.10;;;;;;;-10.28;82.52;100965.93;129268;1284;114749;-60
2023/12/04 07:06:40;;;;;;;0.10;0.10;;;;;;;-10.23;82.47;100965.30;129315;1272;114842;-60
2023/12/04 07:09:42;;;;;;;0.10;0.10;;;;;;;-10.17;82.44;100963.67;129399;1264;114754;-60
2023/12/04 07:12:44;;;;;;;0.10;0.10;;;;;;;-10.11;82.43;100968.27;129443;1261;114726;-61
2023/12/04 07:15:46;;;;;;;0.10;0.10;;;;;;;-10.05;82.64;100970.24;129335;1264;114816;-60
2023/12/04 07:18:48;;;;;;;0.20;0.20;;;;;;;-9.99;82.60;100975.86;129330;1265;114772;-60
2023/12/04 07:21:50;;;;;;;0.20;0.20;;;;;;;-9.92;82.66;100982.55;129296;1277;115069;-60
2023/12/04 07:24:52;;;;;;;0.10;0.10;;;;;;;-9.85;82.51;100978.75;129154;1267;116274;-61
2023/12/04 07:27:54;;;;;;;0.10;0.10;;;;;;;-9.76;82.72;100978.26;129438;1283;114903;-60
2023/12/04 07:30:56;;;;;;;0.20;0.20;;;;;;;-9.65;82.80;100979.23;129315;1264;114752;-60
2023/12/04 07:34:01;;;;;;;0.10;0.10;;;;;;;-9.54;82.93;100981.79;129030;1277;115021;-61
2023/12/04 07:37:03;;;;;;;0.20;0.20;;;;;;;-9.42;82.97;100987.67;129169;1283;115166;-60
2023/12/04 07:40:08;;;;;;;0.10;0.10;;;;;;;-9.28;82.89;100992.07;129345;1260;114928;-60
2023/12/04 07:43:10;;;;;;;0.10;0.10;;;;;;;-9.13;83.37;100988.18;129360;1283;114812;-60
2023/12/04 07:46:13;;;;;;;0.10;0.10;;;;;;;-8.97;83.46;100982.26;129265;1262;114992;-60
2023/12/04 07:49:15;;;;;;;0.10;0.10;;;;;;;-8.81;83.30;100977.52;129338;1265;114718;-61
2023/12/04 07:52:18;;;;;;;0.10;0.10;;;;;;;-8.66;83.20;100979.84;129428;1283;114764;-60
2023/12/04 07:55:20;;;;;;;0.10;0.10;;;;;;;-8.54;83.42;100973.89;129213;1263;115151;-60
2023/12/04 07:58:23;;;;;;;0.10;0.10;;;;;;;-8.45;83.21;100975.11;129348;1278;116460;-60
2023/12/04 08:01:26;;;;;;;0.10;0.10;;;;;;;-8.36;83.24;100972.82;129379;1263;114795;-60
2023/12/04 08:04:28;;;;;;;0.10;0.10;;;;;;;-8.25;83.29;100962.15;129148;1263;114825;-61
2023/12/04 08:07:30;;;;;;;0.10;0.10;;;;;;;-8.15;83.11;100964.61;129008;1284;127633;-61
2023/12/04 08:10:32;;;;;;;0.10;0.10;;;;;;;-8.07;82.96;100962.45;129288;1262;114784;-61
2023/12/04 08:13:35;;;;;;;0.10;0.10;;;;;;;-7.97;83.29;100955.90;129327;1261;115339;-61
2023/12/04 08:16:37;;;;;;;0.10;0.10;;;;;;;-7.84;83.67;100951.16;129160;1265;115079;-61
2023/12/04 08:19:39;;;;;;;0.10;0.10;;;;;;;-7.69;84.14;100956.54;129224;1282;115356;-61
2023/12/04 08:22:41;;;;;;;0.10;0.10;;;;;;;-7.54;83.79;100949.95;129311;1262;115089;-61
2023/12/04 08:25:43;;;;;;;0.10;0.10;;;;;;;-7.41;83.86;100950.20;129188;1264;114768;-61
2023/12/04 08:28:45;;;;;;;0.10;0.10;;;;;;;-7.29;83.72;100942.45;129258;1267;115268;-61
2023/12/04 08:31:50;;;;;;;0.10;0.10;;;;;;;-7.18;84.15;100943.87;129230;1284;114773;-61
2023/12/04 08:34:52;;;;;;;0.10;0.10;;;;;;;-7.02;84.15;100949.42;129217;1264;115210;-62
2023/12/04 08:37:54;;;;;;;0.10;0.10;;;;;;;-6.87;84.09;100949.36;129275;1261;114658;-61
2023/12/04 08:40:56;;;;;;;0.10;0.10;;;;;;;-6.72;84.08;100946.36;129166;1275;114737;-61
2023/12/04 08:43:58;;;;;;;0.10;0.10;;;;;;;-6.53;83.99;100952.50;129163;1264;114794;-61
2023/12/04 08:47:00;;;;;;;0.10;0.10;;;;;;;-6.35;84.13;100950.26;129386;1267;114839;-61
2023/12/04 08:50:03;;;;;;;0.10;0.10;;;;;;;-6.17;84.25;100952.19;129207;1284;127900;-61
2023/12/04 08:53:05;;;;;;;0.10;0.10;;;;;;;-5.94;84.33;100950.00;129385;1261;114753;-61
2023/12/04 08:56:09;;;;;;;0.10;0.10;;;;;;;-5.75;84.56;100946.02;129302;1262;114751;-61
2023/12/04 08:59:10;;;;;;;0.10;0.10;;;;;;;-5.53;84.63;100940.16;129298;1262;114795;-61
2023/12/04 09:02:13;;;;;;;0.10;0.10;;;;;;;-5.34;84.63;100937.16;129199;1264;114772;-61
2023/12/04 09:05:15;;;;;;;0.10;0.10;;;;;;;-5.14;83.64;100934.54;129325;1283;114736;-61
2023/12/04 09:08:18;;;;;;;0.10;0.10;;;;;;;-4.94;84.34;100936.77;129195;1262;114818;-61
2023/12/04 09:11:20;;;;;;;0.10;0.10;;;;;;;-4.73;84.02;100938.13;129407;1263;115454;-61
2023/12/04 09:14:22;;;;;;;0.10;0.10;;;;;;;-4.54;83.84;100933.67;129389;1265;115214;-62
2023/12/04 09:17:25;;;;;;;0.10;0.10;;;;;;;-4.38;84.14;100926.87;129300;1261;114732;-61
2023/12/04 09:20:26;;;;;;;0.10;0.10;;;;;;;-4.32;83.15;100923.17;129199;1264;114838;-61
2023/12/04 09:23:28;;;;;;;0.10;0.10;;;;;;;-4.23;83.43;100922.31;129194;1265;115300;-61
2023/12/04 09:26:31;;;;;;;0.00;0.00;;;;;;;-4.11;83.85;100923.95;129061;1268;114953;-61
2023/12/04 09:29:34;;;;;;;0.10;0.10;;;;;;;-4.04;83.36;100926.36;129186;1262;114748;-61
2023/12/04 09:32:35;;;;;;;0.10;0.10;;;;;;;-3.94;83.46;100920.45;129228;1265;115171;-62
2023/12/04 09:35:38;;;;;;;0.10;0.10;;;;;;;-3.90;82.99;100919.31;129334;1263;115373;-59
2023/12/04 09:38:40;;;;;;;0.10;0.10;;;;;;;-3.84;83.06;100918.89;129032;1274;114913;-61
2023/12/04 09:41:43;;;;;;;0.10;0.10;;;;;;;-3.76;83.03;100918.16;129173;1276;114864;-61
2023/12/04 09:44:48;;;;;;;0.10;0.10;;;;;;;-3.66;83.39;100909.80;129261;1268;114774;-60
2023/12/04 09:47:53;;;;;;;0.10;0.10;;;;;;;-3.60;83.01;100904.84;129278;1283;127995;-60
2023/12/04 09:50:57;;;;;;;0.10;0.10;;;;;;;-3.54;83.25;100900.60;129112;1284;114945;-60
2023/12/04 09:54:03;;;;;;;0.10;0.10;;;;;;;-3.44;83.28;100895.02;129313;1262;115223;-60
2023/12/04 09:57:05;;;;;;;0.10;0.10;;;;;;;-3.37;83.34;100886.21;129228;1264;114858;-60
2023/12/04 10:00:08;;;;;;;0.10;0.10;;;;;;;-3.34;82.74;100876.48;129311;1265;114721;-60
2023/12/04 10:03:10;;;;;;;0.00;0.00;;;;;;;-3.33;82.86;100867.08;129333;1263;114750;-60
2023/12/04 10:06:16;;;;;;;0.00;0.00;;;;;;;-3.27;82.74;100857.21;129311;1266;114848;-60
2023/12/04 10:09:19;;;;;;;0.10;0.10;;;;;;;-3.22;82.68;100848.04;129144;1262;116373;-60
2023/12/04 10:12:24;;;;;;;0.00;0.00;;;;;;;-3.23;82.38;100842.43;129299;1264;114769;-60
2023/12/04 10:15:26;;;;;;;;;;;;;;;-3.22;82.42;100836.16;129421;1265;114840;-60
2023/12/04 10:18:31;;;;;;;0.10;0.10;;;;;;;-3.14;82.90;100837.84;129300;1276;116312;-60
2023/12/04 10:21:33;;;;;;;0.10;0.10;;;;;;;-3.07;82.75;100830.98;129292;1262;128495;-59
2023/12/04 10:24:38;;;;;;;0.10;0.10;;;;;;;-3.02;82.36;100824.23;129176;1265;115366;-59
2023/12/04 10:27:40;;;;;;;0.00;0.00;;;;;;;-2.97;82.42;100824.46;129115;1264;114884;-60
2023/12/04 10:30:43;;;;;;;0.10;0.10;;;;;;;-2.94;82.48;100821.89;129232;1264;114820;-61
2023/12/04 10:33:49;;;;;;;0.10;0.10;;;;;;;-2.88;82.49;100818.13;129237;1266;114773;-60
2023/12/04 10:36:51;;;;;;;0.10;0.10;;;;;;;-2.85;82.67;100811.18;129025;1269;128621;-60
2023/12/04 10:39:53;;;;;;;0.10;0.10;;;;;;;-2.78;82.35;100809.17;129207;1284;114740;-60
2023/12/04 10:43:17;;;;;;;0.10;0.10;;;;;;;-2.77;82.66;100808.33;129228;1262;114780;-61
2023/12/04 10:46:20;;;;;;;0.00;0.00;;;;;;;-2.74;81.90;100805.21;129223;1266;117316;-60
2023/12/04 10:49:25;;;;;;;0.10;0.10;;;;;;;-2.75;81.91;100802.92;129226;1281;114784;-60
2023/12/04 10:52:28;;;;;;;0.10;0.10;;;;;;;-2.73;82.15;100800.32;129260;1265;128695;-62
2023/12/04 10:55:31;;;;;;;0.10;0.10;;;;;;;-2.71;82.23;100800.70;129378;1264;114782;-60
2023/12/04 10:58:34;;;;;;;0.10;0.10;;;;;;;-2.63;82.28;100806.92;129354;1265;114704;-60
2023/12/04 11:01:36;;;;;;;0.10;0.10;;;;;;;-2.56;82.15;100805.27;129349;1266;114834;-60
2023/12/04 11:04:39;;;;;;;0.00;0.00;;;;;;;-2.53;81.36;100805.46;129220;1283;115085;-60
2023/12/04 11:07:45;;;;;;;0.10;0.10;;;;;;;-2.54;81.73;100802.48;129409;1265;114725;-60
2023/12/04 11:10:57;;;;;;;0.10;0.10;;;;;;;-2.48;81.92;100798.19;129195;1262;129678;-60
2023/12/04 11:14:01;;;;;;;0.10;0.10;;;;;;;-2.40;82.07;100793.21;129108;1265;115271;-60
2023/12/04 11:17:11;;;;;;;0.10;0.10;;;;;;;-2.31;81.64;100791.04;129249;1267;114736;-60
2023/12/04 11:20:18;;;;;;;0.10;0.10;;;;;;;-2.28;81.76;100788.09;129374;1263;115058;-60
2023/12/04 11:23:20;;;;;;;0.10;0.10;;;;;;;-2.25;80.88;100788.83;129365;1265;115242;-60
2023/12/04 11:26:23;;;;;;;0.00;0.00;;;;;;;-2.19;81.40;100789.05;129323;1264;114834;-60
2023/12/04 11:29:25;;;;;;;0.00;0.00;;;;;;;-2.11;81.42;100788.45;129289;1283;114803;-60
2023/12/04 11:32:28;;;;;;;0.00;0.00;;;;;;;-2.05;81.21;100783.09;129273;1262;114772;-60
2023/12/04 11:35:30;;;;;;;0.10;0.10;;;;;;;-1.93;81.59;100778.11;129399;1265;114722;-60
2023/12/04 11:38:33;;;;;;;0.10;0.10;;;;;;;-1.75;81.52;100776.70;129161;1262;114806;-60
2023/12/04 11:41:35;;;;;;;0.10;0.10;;;;;;;-1.61;81.22;100770.70;129457;1261;115123;-60
2023/12/04 11:44:41;;;;;;;0.00;0.00;;;;;;;-1.56;80.82;100764.77;129099;1265;114874;-60
2023/12/04 11:47:59;;;;;;;0.10;0.10;;;;;;;-1.50;80.68;100755.53;128843;1287;128236;-60
2023/12/04 11:51:01;;;;;;;0.00;0.00;;;;;;;-1.35;81.54;100750.38;128987;1287;115440;-60
2023/12/04 11:54:08;;;;;;;0.10;0.10;;;;;;;-1.29;80.82;100746.73;129027;1267;114889;-61
2023/12/04 11:57:10;;;;;;;0.00;0.00;;;;;;;-1.26;80.44;100736.41;128965;1286;114918;-60
2023/12/04 12:00:22;;;;;;;0.00;0.00;;;;;;;-1.22;80.78;100725.56;129009;1287;116474;-60
2023/12/04 12:03:24;;;;;;;0.10;0.10;;;;;;;-1.15;80.99;100722.46;129081;1281;128829;-60
2023/12/04 12:06:27;;;;;;;0.10;0.10;;;;;;;-1.15;80.60;100716.50;128952;1271;114934;-60
2023/12/04 12:09:31;;;;;;;0.10;0.10;;;;;;;-1.12;80.74;100712.14;128999;1287;114874;-60
2023/12/04 12:12:33;;;;;;;0.10;0.10;;;;;;;-1.10;80.65;100709.00;129099;1268;114864;-60
2023/12/04 12:15:35;;;;;;;0.10;0.10;;;;;;;-1.10;80.49;100701.45;129158;1283;114863;-60
2023/12/04 12:18:40;;;;;;;0.00;0.00;;;;;;;-1.11;79.99;100692.50;129222;1284;115352;-60
2023/12/04 12:21:43;;;;;;;0.00;0.00;;;;;;;-1.17;79.86;100690.20;129331;1265;126841;-60
2023/12/04 12:24:45;;;;;;;0.10;0.10;;;;;;;-1.24;79.59;100692.45;129280;1264;114743;-61
2023/12/04 12:27:47;;;;;;;0.10;0.10;;;;;;;-1.27;79.70;100693.30;129177;1284;114759;-60
2023/12/04 12:30:49;;;;;;;0.00;0.00;;;;;;;-1.41;78.73;100690.23;129099;1262;114941;-60
2023/12/04 12:33:52;;;;;;;0.00;0.00;;;;;;;-1.48;79.45;100682.51;129164;1265;114734;-60
2023/12/04 12:36:54;;;;;;;0.10;0.10;;;;;;;-1.45;79.53;100683.92;129328;1262;114794;-60
2023/12/04 12:39:57;;;;;;;0.10;0.10;;;;;;;-1.41;79.96;100679.73;129417;1265;114746;-60
2023/12/04 12:43:06;;;;;;;0.10;0.10;;;;;;;-1.35;79.26;100672.77;129165;1262;128383;-60
2023/12/04 12:46:09;;;;;;;0.00;0.00;;;;;;;-1.33;78.86;100663.14;129087;1265;115150;-60
2023/12/04 12:49:14;;;;;;;0.10;0.10;;;;;;;-1.31;79.03;100654.21;129206;1264;114803;-60
2023/12/04 12:52:16;;;;;;;0.00;0.00;;;;;;;-1.33;78.90;100650.88;129417;1263;115164;-60
2023/12/04 12:55:25;;;;;;;0.00;0.00;;;;;;;-1.39;78.43;100645.94;129308;1276;114739;-60
2023/12/04 12:58:27;;;;;;;0.00;0.00;;;;;;;-1.46;78.63;100643.44;129277;1265;128921;-61
2023/12/04 13:01:33;;;;;;;0.10;0.10;;;;;;;-1.53;78.13;100638.33;129436;1279;114745;-61
2023/12/04 13:04:40;;;;;;;0.00;0.00;;;;;;;-1.62;78.44;100633.04;129212;1267;115405;-61
2023/12/04 13:07:42;;;;;;;0.10;0.10;;;;;;;-1.70;78.21;100626.69;129386;1265;114733;-61
2023/12/04 13:10:44;;;;;;;0.10;0.10;;;;;;;-1.73;78.14;100617.38;129398;1283;114745;-61
2023/12/04 13:13:47;;;;;;;0.10;0.10;;;;;;;-1.79;77.52;100615.41;129364;1262;114798;-61
2023/12/04 13:16:49;;;;;;;0.00;0.00;;;;;;;-1.95;77.44;100607.80;126662;1265;3949973;-61
2023/12/04 13:19:52;;;;;;;0.10;0.10;;;;;;;-2.03;77.99;100602.31;129054;1283;127422;-61
2023/12/04 13:22:54;;;;;;;0.00;0.00;;;;;;;-2.04;78.42;100599.86;129404;1283;114738;-61
2023/12/04 13:25:56;;;;;;;0.00;0.00;;;;;;;-2.05;78.36;100599.84;129349;1283;114746;-61
2023/12/04 13:28:58;;;;;;;0.10;0.10;;;;;;;-2.09;78.17;100600.02;129095;1268;114868;-61
2023/12/04 13:32:00;;;;;;;0.10;0.10;;;;;;;-2.15;78.42;100598.91;129339;1281;114738;-61
2023/12/04 13:35:04;;;;;;;0.00;0.00;;;;;;;-2.15;78.46;100595.05;129343;1264;114743;-61
2023/12/04 13:38:12;;;;;;;0.10;0.10;;;;;;;-2.15;78.47;100589.28;129361;1279;114713;-61